sensor_id;sensor_type;location;lat;lon;timestamp;pressure;altitude;pressure_sealevel;temperature
68027;BMP180;54819;48.030;14.710;2022-11-25T00:01:24;97637.00;;;6.60
68027;BMP180;54819;48.030;14.710;2022-11-25T00:03:56;97634.60;;;6.60
68027;BMP180;54819;48.030;14.710;2022-11-25T00:06:32;97634.80;;;6.60
68027;BMP180;54819;48.030;14.710;2022-11-25T00:09:19;97631.20;;;6.60
68027;BMP180;54819;48.030;14.710;2022-11-25T00:11:46;97631.60;;;6.62
68027;BMP180;54819;48.030;14.710;2022-11-25T00:14:14;97629.00;;;6.70
68027;BMP180;54819;48.030;14.710;2022-11-25T00:16:41;97622.60;;;6.70
68027;BMP180;54819;48.030;14.710;2022-11-25T00:19:14;97620.20;;;6.70
68027;BMP180;54819;48.030;14.710;2022-11-25T00:21:41;97619.00;;;6.70
68027;BMP180;54819;48.030;14.710;2022-11-25T00:24:08;97614.60;;;6.74
68027;BMP180;54819;48.030;14.710;2022-11-25T00:26:36;97615.80;;;6.80
68027;BMP180;54819;48.030;14.710;2022-11-25T00:29:06;97613.60;;;6.80
68027;BMP180;54819;48.030;14.710;2022-11-25T00:31:36;97608.40;;;6.90
68027;BMP180;54819;48.030;14.710;2022-11-25T00:34:04;97602.40;;;6.90
68027;BMP180;54819;48.030;14.710;2022-11-25T00:36:34;97604.80;;;7.00
68027;BMP180;54819;48.030;14.710;2022-11-25T00:39:08;97607.00;;;7.00
68027;BMP180;54819;48.030;14.710;2022-11-25T00:41:36;97604.40;;;7.10
68027;BMP180;54819;48.030;14.710;2022-11-25T00:44:21;97598.80;;;7.10
68027;BMP180;54819;48.030;14.710;2022-11-25T00:47:17;97600.00;;;7.20
68027;BMP180;54819;48.030;14.710;2022-11-25T00:49:53;97600.60;;;7.20
68027;BMP180;54819;48.030;14.710;2022-11-25T00:52:24;97596.00;;;7.18
68027;BMP180;54819;48.030;14.710;2022-11-25T00:54:52;97592.80;;;7.12
68027;BMP180;54819;48.030;14.710;2022-11-25T00:57:22;97593.40;;;7.10
68027;BMP180;54819;48.030;14.710;2022-11-25T00:59:49;97593.80;;;7.10
68027;BMP180;54819;48.030;14.710;2022-11-25T01:02:19;97599.80;;;7.00
68027;BMP180;54819;48.030;14.710;2022-11-25T01:04:46;97597.80;;;6.90
68027;BMP180;54819;48.030;14.710;2022-11-25T01:07:15;97601.00;;;6.86
68027;BMP180;54819;48.030;14.710;2022-11-25T01:09:42;97601.80;;;6.80
68027;BMP180;54819;48.030;14.710;2022-11-25T01:12:09;97600.80;;;6.80
68027;BMP180;54819;48.030;14.710;2022-11-25T01:14:36;97608.00;;;6.60
68027;BMP180;54819;48.030;14.710;2022-11-25T01:17:03;97615.00;;;6.40
68027;BMP180;54819;48.030;14.710;2022-11-25T01:19:32;97620.00;;;6.10
68027;BMP180;54819;48.030;14.710;2022-11-25T01:21:59;97619.20;;;5.90
68027;BMP180;54819;48.030;14.710;2022-11-25T01:24:25;97622.20;;;5.80
68027;BMP180;54819;48.030;14.710;2022-11-25T01:26:53;97622.20;;;5.70
68027;BMP180;54819;48.030;14.710;2022-11-25T01:29:22;97630.00;;;5.70
68027;BMP180;54819;48.030;14.710;2022-11-25T01:31:54;97633.00;;;5.66
68027;BMP180;54819;48.030;14.710;2022-11-25T01:34:26;97634.00;;;5.68
68027;BMP180;54819;48.030;14.710;2022-11-25T01:36:56;97629.60;;;5.70
68027;BMP180;54819;48.030;14.710;2022-11-25T01:39:24;97632.00;;;5.70
68027;BMP180;54819;48.030;14.710;2022-11-25T01:42:00;97634.60;;;5.80
68027;BMP180;54819;48.030;14.710;2022-11-25T01:44:28;97630.20;;;5.90
68027;BMP180;54819;48.030;14.710;2022-11-25T01:47:24;97624.60;;;6.00
68027;BMP180;54819;48.030;14.710;2022-11-25T01:50:03;97628.20;;;6.04
68027;BMP180;54819;48.030;14.710;2022-11-25T01:52:43;97626.60;;;6.14
68027;BMP180;54819;48.030;14.710;2022-11-25T01:55:18;97634.60;;;6.26
68027;BMP180;54819;48.030;14.710;2022-11-25T01:57:56;97636.60;;;6.30
68027;BMP180;54819;48.030;14.710;2022-11-25T02:00:25;97630.80;;;6.36
68027;BMP180;54819;48.030;14.710;2022-11-25T02:02:54;97633.20;;;6.40
68027;BMP180;54819;48.030;14.710;2022-11-25T02:06:01;97628.60;;;6.40
68027;BMP180;54819;48.030;14.710;2022-11-25T02:08:25;97635.80;;;6.46
68027;BMP180;54819;48.030;14.710;2022-11-25T02:10:54;97638.00;;;6.40
68027;BMP180;54819;48.030;14.710;2022-11-25T02:13:23;97645.00;;;6.30
68027;BMP180;54819;48.030;14.710;2022-11-25T02:15:50;97647.00;;;6.18
68027;BMP180;54819;48.030;14.710;2022-11-25T02:18:17;97646.60;;;6.00
68027;BMP180;54819;48.030;14.710;2022-11-25T02:20:44;97648.00;;;5.96
68027;BMP180;54819;48.030;14.710;2022-11-25T02:23:38;97648.00;;;5.90
68027;BMP180;54819;48.030;14.710;2022-11-25T02:26:08;97653.20;;;6.00
68027;BMP180;54819;48.030;14.710;2022-11-25T02:28:36;97650.20;;;6.02
68027;BMP180;54819;48.030;14.710;2022-11-25T02:31:06;97655.20;;;6.10
68027;BMP180;54819;48.030;14.710;2022-11-25T02:33:34;97652.20;;;6.20
68027;BMP180;54819;48.030;14.710;2022-11-25T02:36:04;97653.00;;;6.28
68027;BMP180;54819;48.030;14.710;2022-11-25T02:38:42;97654.80;;;6.30
68027;BMP180;54819;48.030;14.710;2022-11-25T02:43:54;97652.40;;;6.40
68027;BMP180;54819;48.030;14.710;2022-11-25T02:46:24;97650.60;;;6.40
68027;BMP180;54819;48.030;14.710;2022-11-25T02:48:54;97649.60;;;6.40
68027;BMP180;54819;48.030;14.710;2022-11-25T02:51:41;97652.40;;;6.30
68027;BMP180;54819;48.030;14.710;2022-11-25T02:54:12;97655.20;;;6.20
68027;BMP180;54819;48.030;14.710;2022-11-25T02:56:39;97657.60;;;6.20
68027;BMP180;54819;48.030;14.710;2022-11-25T02:59:07;97656.00;;;6.10
68027;BMP180;54819;48.030;14.710;2022-11-25T03:01:35;97659.80;;;6.20
68027;BMP180;54819;48.030;14.710;2022-11-25T03:04:05;97658.20;;;6.10
68027;BMP180;54819;48.030;14.710;2022-11-25T03:06:33;97661.60;;;6.04
68027;BMP180;54819;48.030;14.710;2022-11-25T03:09:00;97659.80;;;6.00
68027;BMP180;54819;48.030;14.710;2022-11-25T03:11:28;97655.80;;;6.00
68027;BMP180;54819;48.030;14.710;2022-11-25T03:14:14;97653.00;;;5.94
68027;BMP180;54819;48.030;14.710;2022-11-25T03:16:41;97649.40;;;5.90
68027;BMP180;54819;48.030;14.710;2022-11-25T03:19:08;97660.60;;;5.80
68027;BMP180;54819;48.030;14.710;2022-11-25T03:21:35;97664.80;;;5.70
68027;BMP180;54819;48.030;14.710;2022-11-25T03:24:02;97662.20;;;5.70
68027;BMP180;54819;48.030;14.710;2022-11-25T03:26:29;97665.80;;;5.64
68027;BMP180;54819;48.030;14.710;2022-11-25T03:28:56;97663.00;;;5.70
68027;BMP180;54819;48.030;14.710;2022-11-25T03:31:23;97662.60;;;5.70
68027;BMP180;54819;48.030;14.710;2022-11-25T03:33:50;97663.60;;;5.64
68027;BMP180;54819;48.030;14.710;2022-11-25T03:36:19;97663.20;;;5.62
68027;BMP180;54819;48.030;14.710;2022-11-25T03:38:46;97664.00;;;5.60
68027;BMP180;54819;48.030;14.710;2022-11-25T03:41:13;97657.80;;;5.54
68027;BMP180;54819;48.030;14.710;2022-11-25T03:43:40;97664.40;;;5.50
68027;BMP180;54819;48.030;14.710;2022-11-25T03:46:07;97664.00;;;5.40
68027;BMP180;54819;48.030;14.710;2022-11-25T03:48:34;97662.00;;;5.30
68027;BMP180;54819;48.030;14.710;2022-11-25T03:51:01;97665.40;;;5.28
68027;BMP180;54819;48.030;14.710;2022-11-25T03:53:28;97661.40;;;5.30
68027;BMP180;54819;48.030;14.710;2022-11-25T03:55:57;97667.20;;;5.22
68027;BMP180;54819;48.030;14.710;2022-11-25T03:58:24;97665.40;;;5.20
68027;BMP180;54819;48.030;14.710;2022-11-25T04:00:51;97666.60;;;5.20
68027;BMP180;54819;48.030;14.710;2022-11-25T04:03:18;97665.00;;;5.12
68027;BMP180;54819;48.030;14.710;2022-11-25T04:05:45;97668.20;;;5.10
68027;BMP180;54819;48.030;14.710;2022-11-25T04:08:12;97666.00;;;5.10
68027;BMP180;54819;48.030;14.710;2022-11-25T04:10:39;97667.40;;;5.08
68027;BMP180;54819;48.030;14.710;2022-11-25T04:13:07;97663.80;;;5.10
68027;BMP180;54819;48.030;14.710;2022-11-25T04:15:36;97661.80;;;5.02
68027;BMP180;54819;48.030;14.710;2022-11-25T04:18:03;97650.80;;;5.00
68027;BMP180;54819;48.030;14.710;2022-11-25T04:20:30;97647.00;;;4.90
68027;BMP180;54819;48.030;14.710;2022-11-25T04:23:01;97644.20;;;4.90
68027;BMP180;54819;48.030;14.710;2022-11-25T04:25:28;97645.20;;;4.90
68027;BMP180;54819;48.030;14.710;2022-11-25T04:27:56;97649.80;;;4.90
68027;BMP180;54819;48.030;14.710;2022-11-25T04:30:27;97652.80;;;5.00
68027;BMP180;54819;48.030;14.710;2022-11-25T04:32:55;97652.20;;;4.90
68027;BMP180;54819;48.030;14.710;2022-11-25T04:35:22;97647.60;;;4.70
68027;BMP180;54819;48.030;14.710;2022-11-25T04:37:51;97655.00;;;4.50
68027;BMP180;54819;48.030;14.710;2022-11-25T04:40:19;97650.60;;;4.40
68027;BMP180;54819;48.030;14.710;2022-11-25T04:42:52;97652.00;;;4.40
68027;BMP180;54819;48.030;14.710;2022-11-25T04:45:28;97656.40;;;4.40
68027;BMP180;54819;48.030;14.710;2022-11-25T04:48:15;97664.20;;;4.40
68027;BMP180;54819;48.030;14.710;2022-11-25T04:50:42;97664.40;;;4.40
68027;BMP180;54819;48.030;14.710;2022-11-25T04:53:11;97666.40;;;4.30
68027;BMP180;54819;48.030;14.710;2022-11-25T04:55:39;97665.40;;;4.30
68027;BMP180;54819;48.030;14.710;2022-11-25T04:58:11;97667.60;;;4.30
68027;BMP180;54819;48.030;14.710;2022-11-25T05:00:39;97666.40;;;4.30
68027;BMP180;54819;48.030;14.710;2022-11-25T05:03:06;97661.80;;;4.36
68027;BMP180;54819;48.030;14.710;2022-11-25T05:05:37;97662.80;;;4.40
68027;BMP180;54819;48.030;14.710;2022-11-25T05:08:04;97662.00;;;4.50
68027;BMP180;54819;48.030;14.710;2022-11-25T05:10:31;97659.20;;;4.40
68027;BMP180;54819;48.030;14.710;2022-11-25T05:12:58;97661.00;;;4.40
68027;BMP180;54819;48.030;14.710;2022-11-25T05:15:25;97661.60;;;4.40
68027;BMP180;54819;48.030;14.710;2022-11-25T05:17:52;97661.40;;;4.40
68027;BMP180;54819;48.030;14.710;2022-11-25T05:20:31;97660.60;;;4.40
68027;BMP180;54819;48.030;14.710;2022-11-25T05:22:58;97663.20;;;4.40
68027;BMP180;54819;48.030;14.710;2022-11-25T05:25:25;97662.40;;;4.42
68027;BMP180;54819;48.030;14.710;2022-11-25T05:28:04;97660.80;;;4.40
68027;BMP180;54819;48.030;14.710;2022-11-25T05:30:31;97664.40;;;4.40
68027;BMP180;54819;48.030;14.710;2022-11-25T05:32:58;97668.80;;;4.30
68027;BMP180;54819;48.030;14.710;2022-11-25T05:35:25;97668.00;;;4.30
68027;BMP180;54819;48.030;14.710;2022-11-25T05:37:52;97665.00;;;4.30
68027;BMP180;54819;48.030;14.710;2022-11-25T05:40:19;97668.60;;;4.30
68027;BMP180;54819;48.030;14.710;2022-11-25T05:43:00;97670.00;;;4.30
68027;BMP180;54819;48.030;14.710;2022-11-25T05:45:29;97673.40;;;4.32
68027;BMP180;54819;48.030;14.710;2022-11-25T05:47:56;97680.00;;;4.40
68027;BMP180;54819;48.030;14.710;2022-11-25T05:50:24;97680.40;;;4.40
68027;BMP180;54819;48.030;14.710;2022-11-25T05:53:13;97683.20;;;4.46
68027;BMP180;54819;48.030;14.710;2022-11-25T05:55:43;97679.60;;;4.46
68027;BMP180;54819;48.030;14.710;2022-11-25T05:58:20;97677.80;;;4.48
68027;BMP180;54819;48.030;14.710;2022-11-25T06:00:49;97682.00;;;4.50
68027;BMP180;54819;48.030;14.710;2022-11-25T06:03:18;97674.00;;;4.40
68027;BMP180;54819;48.030;14.710;2022-11-25T06:05:45;97680.60;;;4.32
68027;BMP180;54819;48.030;14.710;2022-11-25T06:08:12;97681.00;;;4.30
68027;BMP180;54819;48.030;14.710;2022-11-25T06:10:40;97682.80;;;4.30
68027;BMP180;54819;48.030;14.710;2022-11-25T06:13:08;97685.00;;;4.30
68027;BMP180;54819;48.030;14.710;2022-11-25T06:15:41;97684.00;;;4.40
68027;BMP180;54819;48.030;14.710;2022-11-25T06:18:11;97682.80;;;4.46
68027;BMP180;54819;48.030;14.710;2022-11-25T06:20:38;97686.00;;;4.50
68027;BMP180;54819;48.030;14.710;2022-11-25T06:23:06;97691.40;;;4.56
68027;BMP180;54819;48.030;14.710;2022-11-25T06:25:34;97689.00;;;4.60
68027;BMP180;54819;48.030;14.710;2022-11-25T06:28:02;97685.20;;;4.60
68027;BMP180;54819;48.030;14.710;2022-11-25T06:30:39;97684.40;;;4.70
68027;BMP180;54819;48.030;14.710;2022-11-25T06:33:29;97681.80;;;4.74
68027;BMP180;54819;48.030;14.710;2022-11-25T06:35:58;97676.40;;;4.72
68027;BMP180;54819;48.030;14.710;2022-11-25T06:38:25;97681.40;;;4.70
68027;BMP180;54819;48.030;14.710;2022-11-25T06:40:52;97679.80;;;4.70
68027;BMP180;54819;48.030;14.710;2022-11-25T06:43:24;97683.40;;;4.70
68027;BMP180;54819;48.030;14.710;2022-11-25T06:45:51;97683.60;;;4.70
68027;BMP180;54819;48.030;14.710;2022-11-25T06:48:18;97687.80;;;4.70
68027;BMP180;54819;48.030;14.710;2022-11-25T06:50:55;97686.00;;;4.66
68027;BMP180;54819;48.030;14.710;2022-11-25T06:53:23;97692.60;;;4.56
68027;BMP180;54819;48.030;14.710;2022-11-25T06:56:11;97687.80;;;4.60
68027;BMP180;54819;48.030;14.710;2022-11-25T06:58:40;97692.20;;;4.58
68027;BMP180;54819;48.030;14.710;2022-11-25T07:03:43;97695.60;;;4.52
68027;BMP180;54819;48.030;14.710;2022-11-25T07:06:16;97689.80;;;4.50
68027;BMP180;54819;48.030;14.710;2022-11-25T07:08:44;97694.60;;;4.44
68027;BMP180;54819;48.030;14.710;2022-11-25T07:11:19;97687.60;;;4.40
68027;BMP180;54819;48.030;14.710;2022-11-25T07:13:50;97692.20;;;4.40
68027;BMP180;54819;48.030;14.710;2022-11-25T07:16:18;97701.00;;;4.60
68027;BMP180;54819;48.030;14.710;2022-11-25T07:18:45;97701.00;;;4.60
68027;BMP180;54819;48.030;14.710;2022-11-25T07:21:16;97708.00;;;4.60
68027;BMP180;54819;48.030;14.710;2022-11-25T07:23:45;97713.40;;;4.58
68027;BMP180;54819;48.030;14.710;2022-11-25T07:26:26;97714.60;;;4.58
68027;BMP180;54819;48.030;14.710;2022-11-25T07:28:57;97716.40;;;4.56
68027;BMP180;54819;48.030;14.710;2022-11-25T07:31:32;97719.40;;;4.52
68027;BMP180;54819;48.030;14.710;2022-11-25T07:34:09;97717.20;;;4.50
68027;BMP180;54819;48.030;14.710;2022-11-25T07:36:37;97721.60;;;4.40
68027;BMP180;54819;48.030;14.710;2022-11-25T07:39:10;97723.80;;;4.26
68027;BMP180;54819;48.030;14.710;2022-11-25T07:41:37;97721.60;;;4.20
68027;BMP180;54819;48.030;14.710;2022-11-25T07:44:09;97725.20;;;4.10
68027;BMP180;54819;48.030;14.710;2022-11-25T07:46:49;97722.00;;;4.10
68027;BMP180;54819;48.030;14.710;2022-11-25T07:49:20;97722.40;;;4.10
68027;BMP180;54819;48.030;14.710;2022-11-25T07:51:53;97723.40;;;4.20
68027;BMP180;54819;48.030;14.710;2022-11-25T07:54:21;97730.40;;;4.20
68027;BMP180;54819;48.030;14.710;2022-11-25T07:56:49;97733.80;;;4.20
68027;BMP180;54819;48.030;14.710;2022-11-25T07:59:19;97732.60;;;4.30
68027;BMP180;54819;48.030;14.710;2022-11-25T08:01:54;97731.80;;;4.30
68027;BMP180;54819;48.030;14.710;2022-11-25T08:04:22;97737.20;;;4.30
68027;BMP180;54819;48.030;14.710;2022-11-25T08:06:51;97740.20;;;4.40
68027;BMP180;54819;48.030;14.710;2022-11-25T08:09:22;97738.00;;;4.50
68027;BMP180;54819;48.030;14.710;2022-11-25T08:11:50;97736.80;;;4.56
68027;BMP180;54819;48.030;14.710;2022-11-25T08:14:17;97737.60;;;4.60
68027;BMP180;54819;48.030;14.710;2022-11-25T08:16:45;97737.60;;;4.78
68027;BMP180;54819;48.030;14.710;2022-11-25T08:19:15;97745.00;;;4.80
68027;BMP180;54819;48.030;14.710;2022-11-25T08:21:43;97742.20;;;4.86
68027;BMP180;54819;48.030;14.710;2022-11-25T08:24:19;97740.60;;;5.00
68027;BMP180;54819;48.030;14.710;2022-11-25T08:26:47;97749.00;;;5.10
68027;BMP180;54819;48.030;14.710;2022-11-25T08:29:16;97753.60;;;5.20
68027;BMP180;54819;48.030;14.710;2022-11-25T08:31:43;97752.40;;;5.30
68027;BMP180;54819;48.030;14.710;2022-11-25T08:34:21;97751.20;;;5.30
68027;BMP180;54819;48.030;14.710;2022-11-25T08:36:49;97746.60;;;5.38
68027;BMP180;54819;48.030;14.710;2022-11-25T08:39:19;97753.00;;;5.40
68027;BMP180;54819;48.030;14.710;2022-11-25T08:42:07;97754.40;;;5.50
68027;BMP180;54819;48.030;14.710;2022-11-25T08:44:34;97749.40;;;5.50
68027;BMP180;54819;48.030;14.710;2022-11-25T08:47:02;97751.60;;;5.60
68027;BMP180;54819;48.030;14.710;2022-11-25T08:49:29;97757.20;;;5.60
68027;BMP180;54819;48.030;14.710;2022-11-25T08:52:01;97752.20;;;5.70
68027;BMP180;54819;48.030;14.710;2022-11-25T08:54:28;97748.00;;;5.70
68027;BMP180;54819;48.030;14.710;2022-11-25T08:56:56;97742.00;;;5.76
68027;BMP180;54819;48.030;14.710;2022-11-25T08:59:23;97744.00;;;5.80
68027;BMP180;54819;48.030;14.710;2022-11-25T09:01:50;97748.20;;;5.86
68027;BMP180;54819;48.030;14.710;2022-11-25T09:04:18;97745.20;;;5.86
68027;BMP180;54819;48.030;14.710;2022-11-25T09:06:45;97749.60;;;5.84
68027;BMP180;54819;48.030;14.710;2022-11-25T09:09:12;97752.20;;;5.80
68027;BMP180;54819;48.030;14.710;2022-11-25T09:11:39;97752.40;;;5.80
68027;BMP180;54819;48.030;14.710;2022-11-25T09:14:06;97758.20;;;5.80
68027;BMP180;54819;48.030;14.710;2022-11-25T09:16:33;97759.60;;;5.90
68027;BMP180;54819;48.030;14.710;2022-11-25T09:19:00;97758.60;;;5.90
68027;BMP180;54819;48.030;14.710;2022-11-25T09:21:28;97756.00;;;5.90
68027;BMP180;54819;48.030;14.710;2022-11-25T09:23:55;97749.40;;;6.00
68027;BMP180;54819;48.030;14.710;2022-11-25T09:26:26;97750.40;;;6.00
68027;BMP180;54819;48.030;14.710;2022-11-25T09:28:54;97750.40;;;6.12
68027;BMP180;54819;48.030;14.710;2022-11-25T09:31:22;97750.00;;;6.20
68027;BMP180;54819;48.030;14.710;2022-11-25T09:33:49;97747.60;;;6.40
68027;BMP180;54819;48.030;14.710;2022-11-25T09:36:18;97742.00;;;6.40
68027;BMP180;54819;48.030;14.710;2022-11-25T09:38:46;97736.40;;;6.40
68027;BMP180;54819;48.030;14.710;2022-11-25T09:47:49;97740.00;;;6.80
68027;BMP180;54819;48.030;14.710;2022-11-25T09:53:49;97731.00;;;7.26
68027;BMP180;54819;48.030;14.710;2022-11-25T09:59:14;97725.60;;;7.40
68027;BMP180;54819;48.030;14.710;2022-11-25T10:01:58;97721.80;;;7.46
68027;BMP180;54819;48.030;14.710;2022-11-25T10:04:40;97716.20;;;7.60
68027;BMP180;54819;48.030;14.710;2022-11-25T10:07:21;97717.00;;;7.70
68027;BMP180;54819;48.030;14.710;2022-11-25T10:09:51;97715.40;;;7.86
68027;BMP180;54819;48.030;14.710;2022-11-25T10:12:27;97714.80;;;8.00
68027;BMP180;54819;48.030;14.710;2022-11-25T10:15:02;97720.00;;;8.18
68027;BMP180;54819;48.030;14.710;2022-11-25T10:17:47;97719.00;;;8.10
68027;BMP180;54819;48.030;14.710;2022-11-25T10:20:25;97719.80;;;8.10
68027;BMP180;54819;48.030;14.710;2022-11-25T10:22:59;97713.40;;;8.10
68027;BMP180;54819;48.030;14.710;2022-11-25T10:25:33;97714.80;;;8.10
68027;BMP180;54819;48.030;14.710;2022-11-25T10:28:19;97713.00;;;8.10
68027;BMP180;54819;48.030;14.710;2022-11-25T10:31:05;97707.80;;;8.04
68027;BMP180;54819;48.030;14.710;2022-11-25T10:33:44;97701.20;;;8.00
68027;BMP180;54819;48.030;14.710;2022-11-25T10:36:20;97698.20;;;7.90
68027;BMP180;54819;48.030;14.710;2022-11-25T10:38:58;97693.60;;;7.80
68027;BMP180;54819;48.030;14.710;2022-11-25T10:41:32;97699.40;;;7.80
68027;BMP180;54819;48.030;14.710;2022-11-25T10:44:02;97703.40;;;7.82
68027;BMP180;54819;48.030;14.710;2022-11-25T10:46:47;97701.00;;;7.80
68027;BMP180;54819;48.030;14.710;2022-11-25T10:49:50;97692.60;;;7.86
68027;BMP180;54819;48.030;14.710;2022-11-25T10:52:29;97699.80;;;7.80
68027;BMP180;54819;48.030;14.710;2022-11-25T10:55:12;97701.00;;;7.84
68027;BMP180;54819;48.030;14.710;2022-11-25T10:57:41;97698.40;;;7.90
68027;BMP180;54819;48.030;14.710;2022-11-25T11:00:36;97699.60;;;7.90
68027;BMP180;54819;48.030;14.710;2022-11-25T11:03:18;97708.60;;;8.00
68027;BMP180;54819;48.030;14.710;2022-11-25T11:05:52;97701.80;;;8.00
68027;BMP180;54819;48.030;14.710;2022-11-25T11:08:40;97697.80;;;7.98
68027;BMP180;54819;48.030;14.710;2022-11-25T11:11:21;97704.00;;;8.00
68027;BMP180;54819;48.030;14.710;2022-11-25T11:16:40;97710.80;;;8.10
68027;BMP180;54819;48.030;14.710;2022-11-25T11:21:49;97706.60;;;8.20
68027;BMP180;54819;48.030;14.710;2022-11-25T11:24:29;97704.80;;;8.28
68027;BMP180;54819;48.030;14.710;2022-11-25T11:27:24;97708.40;;;8.32
68027;BMP180;54819;48.030;14.710;2022-11-25T11:30:19;97708.40;;;8.40
68027;BMP180;54819;48.030;14.710;2022-11-25T11:47:35;97716.80;;;8.92
68027;BMP180;54819;48.030;14.710;2022-11-25T11:50:24;97713.80;;;8.98
68027;BMP180;54819;48.030;14.710;2022-11-25T11:53:09;97712.60;;;9.06
68027;BMP180;54819;48.030;14.710;2022-11-25T11:56:06;97707.00;;;9.10
68027;BMP180;54819;48.030;14.710;2022-11-25T12:05:27;97707.00;;;9.58
68027;BMP180;54819;48.030;14.710;2022-11-25T12:08:21;97707.20;;;9.60
68027;BMP180;54819;48.030;14.710;2022-11-25T12:10:55;97704.80;;;9.64
68027;BMP180;54819;48.030;14.710;2022-11-25T12:13:45;97702.20;;;9.70
68027;BMP180;54819;48.030;14.710;2022-11-25T12:16:35;97703.00;;;9.80
68027;BMP180;54819;48.030;14.710;2022-11-25T12:19:32;97699.00;;;9.86
68027;BMP180;54819;48.030;14.710;2022-11-25T12:27:36;97699.20;;;10.00
68027;BMP180;54819;48.030;14.710;2022-11-25T12:30:16;97701.20;;;9.88
68027;BMP180;54819;48.030;14.710;2022-11-25T12:36:11;97695.40;;;9.80
68027;BMP180;54819;48.030;14.710;2022-11-25T12:41:57;97696.00;;;9.70
68027;BMP180;54819;48.030;14.710;2022-11-25T12:44:59;97695.40;;;9.66
68027;BMP180;54819;48.030;14.710;2022-11-25T12:47:28;97699.60;;;9.70
68027;BMP180;54819;48.030;14.710;2022-11-25T12:49:55;97704.40;;;9.70
68027;BMP180;54819;48.030;14.710;2022-11-25T12:52:41;97709.80;;;9.70
68027;BMP180;54819;48.030;14.710;2022-11-25T12:55:25;97709.40;;;9.70
68027;BMP180;54819;48.030;14.710;2022-11-25T13:01:36;97717.80;;;9.64
68027;BMP180;54819;48.030;14.710;2022-11-25T13:07:24;97717.20;;;9.70
68027;BMP180;54819;48.030;14.710;2022-11-25T13:13:23;97719.40;;;9.60
68027;BMP180;54819;48.030;14.710;2022-11-25T13:15:58;97723.20;;;9.60
68027;BMP180;54819;48.030;14.710;2022-11-25T13:18:31;97723.80;;;9.50
68027;BMP180;54819;48.030;14.710;2022-11-25T13:21:17;97725.80;;;9.50
68027;BMP180;54819;48.030;14.710;2022-11-25T13:23:57;97720.00;;;9.50
68027;BMP180;54819;48.030;14.710;2022-11-25T13:34:33;97729.40;;;9.28
68027;BMP180;54819;48.030;14.710;2022-11-25T13:37:35;97736.60;;;9.24
68027;BMP180;54819;48.030;14.710;2022-11-25T13:42:52;97740.00;;;9.20
68027;BMP180;54819;48.030;14.710;2022-11-25T13:45:33;97740.20;;;9.14
68027;BMP180;54819;48.030;14.710;2022-11-25T13:48:20;97727.20;;;9.10
68027;BMP180;54819;48.030;14.710;2022-11-25T13:50:50;97739.40;;;9.10
68027;BMP180;54819;48.030;14.710;2022-11-25T13:53:37;97743.40;;;9.10
68027;BMP180;54819;48.030;14.710;2022-11-25T13:56:35;97743.20;;;9.10
68027;BMP180;54819;48.030;14.710;2022-11-25T14:04:15;97746.60;;;9.00
68027;BMP180;54819;48.030;14.710;2022-11-25T14:10:17;97745.80;;;8.90
68027;BMP180;54819;48.030;14.710;2022-11-25T14:13:07;97744.80;;;8.90
68027;BMP180;54819;48.030;14.710;2022-11-25T14:26:58;97758.00;;;8.70
68027;BMP180;54819;48.030;14.710;2022-11-25T14:32:13;97761.40;;;8.60
68027;BMP180;54819;48.030;14.710;2022-11-25T14:37:51;97762.00;;;8.40
68027;BMP180;54819;48.030;14.710;2022-11-25T14:40:50;97763.80;;;8.40
68027;BMP180;54819;48.030;14.710;2022-11-25T14:43:22;97767.80;;;8.30
68027;BMP180;54819;48.030;14.710;2022-11-25T14:46:13;97765.80;;;8.24
68027;BMP180;54819;48.030;14.710;2022-11-25T14:48:43;97770.40;;;8.20
68027;BMP180;54819;48.030;14.710;2022-11-25T14:51:12;97773.00;;;8.10
68027;BMP180;54819;48.030;14.710;2022-11-25T14:53:45;97771.00;;;8.00
68027;BMP180;54819;48.030;14.710;2022-11-25T14:56:26;97770.00;;;7.92
68027;BMP180;54819;48.030;14.710;2022-11-25T14:58:56;97773.40;;;7.90
68027;BMP180;54819;48.030;14.710;2022-11-25T15:01:33;97768.20;;;7.80
68027;BMP180;54819;48.030;14.710;2022-11-25T15:04:12;97775.60;;;7.70
68027;BMP180;54819;48.030;14.710;2022-11-25T15:06:48;97777.60;;;7.70
68027;BMP180;54819;48.030;14.710;2022-11-25T15:11:58;97773.40;;;7.60
68027;BMP180;54819;48.030;14.710;2022-11-25T15:14:33;97776.80;;;7.52
68027;BMP180;54819;48.030;14.710;2022-11-25T15:17:29;97774.80;;;7.50
68027;BMP180;54819;48.030;14.710;2022-11-25T15:20:08;97774.00;;;7.50
68027;BMP180;54819;48.030;14.710;2022-11-25T15:22:36;97769.40;;;7.36
68027;BMP180;54819;48.030;14.710;2022-11-25T15:25:14;97765.80;;;7.40
68027;BMP180;54819;48.030;14.710;2022-11-25T15:27:49;97767.40;;;7.30
68027;BMP180;54819;48.030;14.710;2022-11-25T15:30:22;97767.40;;;7.30
68027;BMP180;54819;48.030;14.710;2022-11-25T15:32:51;97773.40;;;7.28
68027;BMP180;54819;48.030;14.710;2022-11-25T15:35:24;97774.80;;;7.20
68027;BMP180;54819;48.030;14.710;2022-11-25T15:37:52;97777.00;;;7.20
68027;BMP180;54819;48.030;14.710;2022-11-25T15:40:40;97778.00;;;7.20
68027;BMP180;54819;48.030;14.710;2022-11-25T15:43:28;97780.60;;;7.10
68027;BMP180;54819;48.030;14.710;2022-11-25T15:46:02;97789.40;;;7.10
68027;BMP180;54819;48.030;14.710;2022-11-25T15:48:39;97791.80;;;7.08
68027;BMP180;54819;48.030;14.710;2022-11-25T15:51:36;97800.60;;;7.00
68027;BMP180;54819;48.030;14.710;2022-11-25T15:56:48;97806.60;;;7.00
68027;BMP180;54819;48.030;14.710;2022-11-25T15:59:45;97813.40;;;6.90
68027;BMP180;54819;48.030;14.710;2022-11-25T16:26:51;97827.20;;;6.82
68027;BMP180;54819;48.030;14.710;2022-11-25T16:32:23;97836.40;;;6.92
68027;BMP180;54819;48.030;14.710;2022-11-25T16:34:51;97841.40;;;7.00
68027;BMP180;54819;48.030;14.710;2022-11-25T16:37:18;97842.80;;;7.00
68027;BMP180;54819;48.030;14.710;2022-11-25T16:39:44;97841.80;;;7.00
68027;BMP180;54819;48.030;14.710;2022-11-25T16:42:19;97847.40;;;6.90
68027;BMP180;54819;48.030;14.710;2022-11-25T16:44:49;97848.20;;;6.90
68027;BMP180;54819;48.030;14.710;2022-11-25T16:47:19;97847.00;;;6.90
68027;BMP180;54819;48.030;14.710;2022-11-25T16:49:47;97845.80;;;6.94
68027;BMP180;54819;48.030;14.710;2022-11-25T16:52:14;97847.80;;;7.00
68027;BMP180;54819;48.030;14.710;2022-11-25T16:54:41;97853.40;;;7.00
68027;BMP180;54819;48.030;14.710;2022-11-25T16:57:17;97860.40;;;7.00
68027;BMP180;54819;48.030;14.710;2022-11-25T16:59:46;97861.20;;;7.00